首页
METAR-TAF:

METAR-TAF

机场 :

Beckley, 西維吉尼亞州, 美国

纬度: 37-47-42N, 经度: 081-07-29W, 海拔: 763米

当前天气观测

该预报发布于33分钟前的22:51 UTC
风速10节,风向
温度 8°C
湿度 25%
气压 1024 hPa
能見度: 16.1公里
天空无云

METAR: KBKW 262251Z AUTO 36010KT 10SM CLR 08/M11 A3023 RMK AO2 SLP251 T00831111

时间: 19:24 (23:24 UTC)

预报

该预报发布于5小时和54分钟前的17:30 UTC
预报有效从26日的 18点(UTC)到 27日的 18点(UTC)
风速8节,风向北转东北
能見度: 10公里
天空无云
从 27日的 0900点(UTC)
风速4节,风向东转东南
能見度: 10公里
少量云层高于20000英尺

TAF: KBKW 261730Z 2618/2718 03008KT P6SM SKC FM270900 12004KT P6SM FEW200

超过4000个机场的气象观测和天气预报(METAR&TAF报告)。

可查询的气象台以黄色和红色小点在地图上表示。

将鼠标移到小点上方,可查看气象台名称。

然后点击查看天气观测和预报。

如需切换地图:点击带黑十字的绿色按钮放大地图;点击带横线的绿色按钮缩小地图;或者点击绿色箭头查看邻近地区的地图。


METAR-TAF: